Time;durP1;ratioP1;P1;durP2;ratioP2;P2;SDS_P1;SDS_P2;PMS_P1;PMS_P2;Temp;Humidity;BMP_temperature;BMP_pressure;BME280_temperature;BME280_humidity;BME280_pressure;Samples;Min_cycle;Max_cycle;Signal;HPM_P1;HPM_P2
2023/06/28 00:00:52;;;;;;;8.52;5.15;;;;;;;27.47;50.82;98317.84;2066410;28;20134;-49
2023/06/28 00:01:52;;;;;;;10.27;4.63;;;;;;;27.48;50.54;98316.75;2062830;28;20104;-50
2023/06/28 00:02:55;;;;;;;7.82;5.32;;;;;;;27.52;50.63;98319.72;2066242;28;20050;-50
2023/06/28 00:03:55;;;;;;;7.93;4.93;;;;;;;27.54;50.77;98320.28;2062539;28;20061;-48
2023/06/28 00:04:58;;;;;;;5.38;4.85;;;;;;;27.56;50.42;98313.47;2063468;28;20197;-49
2023/06/28 00:05:58;;;;;;;7.78;4.40;;;;;;;27.58;50.30;98313.19;2065367;28;20508;-50
2023/06/28 00:07:02;;;;;;;10.75;5.75;;;;;;;27.61;50.42;98315.41;2063876;28;20049;-52
2023/06/28 00:08:03;;;;;;;7.30;5.15;;;;;;;27.63;50.36;98318.66;2063557;28;20049;-50
2023/06/28 00:09:05;;;;;;;6.32;4.57;;;;;;;27.67;50.41;98319.75;2065359;28;20137;-52
2023/06/28 00:10:06;;;;;;;12.38;5.65;;;;;;;27.67;50.51;98319.75;2063140;28;20054;-51
2023/06/28 00:11:08;;;;;;;5.65;5.03;;;;;;;27.69;50.31;98323.00;2065104;28;20046;-49
2023/06/28 00:12:09;;;;;;;6.22;4.43;;;;;;;27.73;50.43;98324.13;2064530;28;20081;-48
2023/06/28 00:13:11;;;;;;;4.97;4.03;;;;;;;27.77;50.22;98318.94;2065925;28;20471;-50
2023/06/28 00:14:12;;;;;;;5.65;4.57;;;;;;;27.77;50.40;98322.47;2064601;28;20061;-56
2023/06/28 00:15:14;;;;;;;5.03;4.53;;;;;;;27.78;50.33;98315.97;2064251;28;20173;-47
2023/06/28 00:16:15;;;;;;;7.70;5.00;;;;;;;27.79;50.17;98314.88;2063902;28;20435;-51
2023/06/28 00:17:16;;;;;;;6.25;4.13;;;;;;;27.80;50.33;98318.44;2063550;28;20081;-51
2023/06/28 00:18:17;;;;;;;6.75;4.65;;;;;;;27.79;50.47;98316.78;2064255;28;20506;-50
2023/06/28 00:19:26;;;;;;;6.57;4.55;;;;;;;27.80;50.13;98322.00;2067308;28;20045;-50
2023/06/28 00:20:27;;;;;;;4.85;4.35;;;;;;;27.80;50.17;98308.38;2064639;28;20700;-52
2023/06/28 00:21:29;;;;;;;5.97;4.45;;;;;;;27.81;50.13;98320.91;2063513;28;20053;-48
2023/06/28 00:22:31;;;;;;;7.13;4.22;;;;;;;27.81;50.25;98323.63;2064832;28;20049;-46
2023/06/28 00:23:33;;;;;;;6.85;4.03;;;;;;;27.83;50.18;98313.28;2065398;28;20054;-50
2023/06/28 00:24:34;;;;;;;5.28;4.10;;;;;;;27.84;50.24;98314.09;2066413;28;20233;-52
2023/06/28 00:25:36;;;;;;;5.55;4.70;;;;;;;27.85;50.06;98319.25;2062365;28;20057;-49
2023/06/28 00:26:37;;;;;;;7.68;4.15;;;;;;;27.84;50.18;98314.09;2064469;28;20057;-48
2023/06/28 00:27:38;;;;;;;6.88;4.40;;;;;;;27.85;50.27;98312.97;2065795;28;20115;-48
2023/06/28 00:28:40;;;;;;;6.03;4.45;;;;;;;27.87;49.96;98312.72;2064129;28;20046;-47
2023/06/28 00:29:42;;;;;;;8.57;4.38;;;;;;;27.85;49.89;98315.72;2066189;28;20060;-48
2023/06/28 00:30:43;;;;;;;7.55;4.43;;;;;;;27.87;50.21;98307.28;2063552;28;20069;-50
2023/06/28 00:31:45;;;;;;;6.28;4.28;;;;;;;27.84;49.87;98309.44;2064425;28;20046;-49
2023/06/28 00:32:46;;;;;;;6.15;3.63;;;;;;;27.83;49.93;98307.81;2065362;28;20088;-51
2023/06/28 00:33:48;;;;;;;8.02;4.78;;;;;;;27.84;49.99;98316.81;2065794;28;20057;-50
2023/06/28 00:34:49;;;;;;;5.80;4.38;;;;;;;27.83;50.03;98313.28;2065920;28;20050;-50
2023/06/28 00:35:51;;;;;;;5.18;4.68;;;;;;;27.83;49.97;98313.28;2063540;28;20406;-49
2023/06/28 00:36:52;;;;;;;4.80;4.20;;;;;;;27.84;49.99;98319.53;2064658;28;20530;-48
2023/06/28 00:37:58;;;;;;;6.13;4.75;;;;;;;27.84;49.90;98323.06;2062954;28;20149;-53
2023/06/28 00:38:59;;;;;;;7.55;4.90;;;;;;;27.83;49.99;98316.00;2063358;28;20054;-51
2023/06/28 00:40:02;;;;;;;6.13;4.60;;;;;;;27.85;49.98;98323.88;2065054;28;20065;-48
2023/06/28 00:41:03;;;;;;;5.28;4.25;;;;;;;27.86;49.98;98317.38;2065412;28;20638;-50
2023/06/28 00:42:05;;;;;;;7.75;4.43;;;;;;;27.87;50.05;98319.00;2065948;28;20050;-50
2023/06/28 00:43:07;;;;;;;4.93;3.75;;;;;;;27.85;49.88;98321.16;2063098;28;20056;-50
2023/06/28 00:44:08;;;;;;;6.45;5.32;;;;;;;27.86;49.44;98317.38;2065137;28;20169;-49
2023/06/28 00:45:12;;;;;;;5.70;3.75;;;;;;;27.84;50.04;98319.53;2064538;28;20527;-50
2023/06/28 00:46:14;;;;;;;4.38;3.80;;;;;;;27.84;49.69;98314.91;2064804;28;20504;-51
2023/06/28 00:47:16;;;;;;;8.07;4.57;;;;;;;27.80;49.50;98318.44;2064250;28;21391;-51
2023/06/28 00:48:17;;;;;;;6.13;4.90;;;;;;;27.79;49.76;98316.78;2064102;28;20049;-52
2023/06/28 00:49:18;;;;;;;4.43;4.00;;;;;;;27.78;49.75;98313.22;2064673;28;20173;-49
2023/06/28 00:50:21;;;;;;;5.18;4.40;;;;;;;27.78;49.65;98315.16;2066131;28;20087;-50
2023/06/28 00:51:23;;;;;;;6.68;4.97;;;;;;;27.76;49.65;98312.69;2066815;28;20046;-51
2023/06/28 00:52:25;;;;;;;5.80;4.72;;;;;;;27.76;49.83;98311.88;2063309;28;20048;-51
2023/06/28 00:53:27;;;;;;;5.30;3.70;;;;;;;27.73;49.64;98312.41;2064128;28;20136;-52
2023/06/28 00:54:29;;;;;;;9.00;4.32;;;;;;;27.67;49.68;98308.06;2062366;28;24063;-52
2023/06/28 00:55:30;;;;;;;6.88;4.50;;;;;;;27.70;49.60;98311.06;2063546;28;20057;-50
2023/06/28 00:56:36;;;;;;;5.13;4.43;;;;;;;27.75;49.81;98315.66;2065009;28;20458;-48
2023/06/28 00:57:42;;;;;;;5.30;4.40;;;;;;;27.76;49.66;98312.69;2060523;28;20215;-48
2023/06/28 00:58:45;;;;;;;5.82;4.30;;;;;;;27.74;49.69;98309.41;2063267;28;20087;-49
2023/06/28 00:59:56;;;;;;;6.43;4.25;;;;;;;27.74;49.80;98320.31;2063446;28;20054;-49
2023/06/28 01:00:59;;;;;;;5.30;3.35;;;;;;;27.73;49.78;98315.13;2064740;28;20041;-50
2023/06/28 01:02:01;;;;;;;9.55;4.80;;;;;;;27.74;49.71;98316.75;2061953;28;20069;-49
2023/06/28 01:03:04;;;;;;;7.03;4.15;;;;;;;27.74;49.73;98320.31;2063622;28;20104;-49
2023/06/28 01:04:06;;;;;;;9.82;4.18;;;;;;;27.77;49.67;98313.50;2062440;28;20088;-47
2023/06/28 01:05:10;;;;;;;6.72;4.07;;;;;;;27.78;49.38;98315.97;2062360;28;20124;-48
2023/06/28 01:06:12;;;;;;;4.55;4.15;;;;;;;27.79;49.30;98316.78;2063897;28;20091;-49
2023/06/28 01:07:16;;;;;;;5.45;4.00;;;;;;;27.78;49.49;98323.31;2063826;28;20504;-50
2023/06/28 01:08:19;;;;;;;7.30;4.18;;;;;;;27.77;48.78;98314.31;2062938;28;20077;-49
2023/06/28 01:09:25;;;;;;;4.40;3.70;;;;;;;27.77;49.00;98316.22;2064124;28;20053;-47
2023/06/28 01:10:26;;;;;;;6.28;3.63;;;;;;;27.76;49.77;98317.31;2063249;28;20057;-49
2023/06/28 01:11:29;;;;;;;6.50;4.30;;;;;;;27.73;49.33;98315.94;2065871;28;20473;-48
2023/06/28 01:12:31;;;;;;;5.32;4.38;;;;;;;27.72;49.27;98314.31;2064408;28;20409;-49
2023/06/28 01:13:37;;;;;;;4.50;3.78;;;;;;;27.69;49.07;98309.41;2062849;28;20107;-47
2023/06/28 01:14:39;;;;;;;5.75;4.97;;;;;;;27.66;49.08;98312.66;2064056;28;20527;-49
2023/06/28 01:15:41;;;;;;;6.93;3.92;;;;;;;27.67;49.16;98314.31;2063153;28;20046;-48
2023/06/28 01:16:43;;;;;;;6.68;4.25;;;;;;;27.66;49.10;98312.66;2063303;28;20050;-51
2023/06/28 01:17:46;;;;;;;5.57;4.25;;;;;;;27.70;48.88;98313.78;2055571;28;20057;-48
2023/06/28 01:18:47;;;;;;;5.28;4.32;;;;;;;27.69;48.83;98311.31;2063780;28;20830;-50
2023/06/28 01:19:53;;;;;;;5.70;4.53;;;;;;;27.67;49.04;98313.50;2062941;28;20078;-49
2023/06/28 01:20:56;;;;;;;6.68;4.60;;;;;;;27.65;49.01;98311.03;2063777;28;20060;-48
2023/06/28 01:22:01;;;;;;;5.28;4.10;;;;;;;27.67;49.09;98306.16;2062464;28;20513;-48
2023/06/28 01:23:05;;;;;;;6.68;4.35;;;;;;;27.66;49.19;98304.50;2062170;28;20046;-50
2023/06/28 01:24:10;;;;;;;7.22;4.28;;;;;;;27.66;49.09;98309.94;2063285;28;20100;-48
2023/06/28 01:25:11;;;;;;;4.63;4.20;;;;;;;27.71;48.62;98307.22;2063246;28;20099;-48
2023/06/28 01:26:17;;;;;;;4.65;3.97;;;;;;;27.72;48.72;98308.88;2062724;28;20132;-48
2023/06/28 01:27:22;;;;;;;4.28;3.88;;;;;;;27.74;48.81;98309.41;2060707;28;20093;-47
2023/06/28 01:28:24;;;;;;;6.18;4.32;;;;;;;27.75;49.10;98304.75;2062908;28;20054;-48
2023/06/28 01:29:26;;;;;;;6.50;3.97;;;;;;;27.74;49.59;98309.41;2061684;28;20046;-49
2023/06/28 01:30:29;;;;;;;5.60;4.20;;;;;;;27.76;49.55;98320.03;2063712;28;20058;-51
2023/06/28 01:31:37;;;;;;;8.25;4.35;;;;;;;27.76;48.93;98309.97;2066662;28;20050;-49
2023/06/28 01:32:39;;;;;;;4.82;3.60;;;;;;;27.72;49.30;98308.03;2062809;28;20850;-49
2023/06/28 01:33:45;;;;;;;6.13;4.30;;;;;;;27.74;49.15;98308.59;2062379;28;20038;-51
2023/06/28 01:34:47;;;;;;;4.93;4.15;;;;;;;27.73;49.61;98306.97;2063122;28;20752;-48
2023/06/28 01:35:49;;;;;;;5.88;4.65;;;;;;;27.74;48.89;98309.41;2060878;28;20082;-49
2023/06/28 01:36:53;;;;;;;6.07;4.55;;;;;;;27.76;49.00;98306.41;2064195;28;20041;-47
2023/06/28 01:38:11;;;;;;;6.00;4.68;;;;;;;27.74;48.85;98303.94;2063291;28;20082;-47
2023/06/28 01:39:17;;;;;;;5.25;4.47;;;;;;;27.74;48.55;98309.41;2062104;28;20073;-50
2023/06/28 01:40:21;;;;;;;6.22;4.82;;;;;;;27.74;48.75;98303.94;2060516;28;20490;-50
2023/06/28 01:41:26;;;;;;;6.75;5.10;;;;;;;27.74;48.71;98303.94;2061013;28;20094;-48
2023/06/28 01:42:27;;;;;;;6.53;4.57;;;;;;;27.76;48.78;98299.06;2062420;28;20248;-49
2023/06/28 01:43:30;;;;;;;5.00;4.13;;;;;;;27.75;48.48;98299.31;2064687;28;20072;-47
2023/06/28 01:44:32;;;;;;;5.68;3.95;;;;;;;27.76;49.04;98300.97;2063858;28;20100;-50
2023/06/28 01:46:00;;;;;;;5.13;4.28;;;;;;;27.68;48.12;98302.31;2054638;28;20078;-47
2023/06/28 01:47:01;;;;;;;9.98;5.00;;;;;;;27.71;48.38;98306.41;2065787;28;20522;-48
2023/06/28 01:48:18;;;;;;;5.82;4.55;;;;;;;27.71;48.61;98304.50;2062997;28;20056;-49
2023/06/28 01:49:25;;;;;;;5.63;3.92;;;;;;;27.71;48.79;98299.03;2052314;28;20085;-48
2023/06/28 01:50:30;;;;;;;4.85;3.95;;;;;;;27.71;49.16;98304.50;2061049;28;20054;-52
2023/06/28 01:51:33;;;;;;;5.30;3.55;;;;;;;27.73;49.00;98307.78;2061327;28;20095;-47
2023/06/28 01:52:38;;;;;;;4.90;3.92;;;;;;;27.74;48.85;98306.69;2058747;28;20100;-47
2023/06/28 01:53:41;;;;;;;6.82;4.05;;;;;;;27.74;48.67;98303.94;2057857;28;20192;-49
2023/06/28 01:54:45;;;;;;;7.15;3.95;;;;;;;27.73;48.23;98306.97;2060273;28;20100;-48
2023/06/28 01:55:46;;;;;;;4.93;4.38;;;;;;;27.70;48.54;98308.31;2063426;28;20050;-49
2023/06/28 01:56:58;;;;;;;6.57;4.72;;;;;;;27.66;47.99;98306.41;2062283;28;20046;-52
2023/06/28 01:58:22;;;;;;;4.40;3.97;;;;;;;27.66;48.35;98304.50;2062384;28;20081;-49
2023/06/28 01:59:26;;;;;;;5.68;4.82;;;;;;;27.69;48.26;98298.50;2059060;28;20152;-47
2023/06/28 02:00:27;;;;;;;6.07;4.20;;;;;;;27.70;49.25;98311.06;2063299;28;20045;-48
2023/06/28 02:01:32;;;;;;;4.75;4.22;;;;;;;27.73;49.19;98312.41;2062986;28;20508;-48
2023/06/28 02:02:34;;;;;;;5.43;4.00;;;;;;;27.74;49.02;98306.69;2063341;28;20057;-49
2023/06/28 02:03:37;;;;;;;5.85;4.10;;;;;;;27.75;48.66;98315.66;2062750;28;20046;-51
2023/06/28 02:04:54;;;;;;;7.65;4.18;;;;;;;27.74;48.70;98312.13;2060798;28;20054;-48
2023/06/28 02:05:58;;;;;;;8.30;3.75;;;;;;;27.73;48.85;98310.50;2062970;28;20428;-48
2023/06/28 02:07:12;;;;;;;7.68;4.13;;;;;;;27.74;48.96;98314.84;2062583;28;20057;-48
2023/06/28 02:08:28;;;;;;;5.25;3.97;;;;;;;27.70;49.10;98305.59;2057534;28;20104;-48
2023/06/28 02:09:31;;;;;;;5.45;4.55;;;;;;;27.70;48.80;98302.88;2058282;28;20486;-47
2023/06/28 02:10:35;;;;;;;6.88;4.43;;;;;;;27.72;49.02;98306.16;2052775;28;20133;-48
2023/06/28 02:11:37;;;;;;;5.85;4.65;;;;;;;27.74;48.90;98311.31;2057341;28;20083;-50
2023/06/28 02:12:41;;;;;;;6.30;4.35;;;;;;;27.74;48.66;98317.56;2058040;28;20188;-48
2023/06/28 02:13:46;;;;;;;7.05;4.53;;;;;;;27.76;48.91;98320.84;2059999;28;20050;-47
2023/06/28 02:14:51;;;;;;;6.38;5.05;;;;;;;27.74;48.70;98319.50;2058653;28;20056;-48
2023/06/28 02:15:55;;;;;;;5.68;4.05;;;;;;;27.72;48.58;98319.78;2061050;28;20054;-51
2023/06/28 02:17:13;;;;;;;7.38;4.60;;;;;;;27.72;49.09;98317.06;2059203;28;20085;-48
2023/06/28 02:18:24;;;;;;;4.63;4.15;;;;;;;27.72;48.80;98316.22;2060924;28;20050;-49
2023/06/28 02:19:33;;;;;;;7.60;4.47;;;;;;;27.72;48.90;98319.78;2054631;28;20062;-50
2023/06/28 02:20:34;;;;;;;5.57;4.35;;;;;;;27.73;48.58;98315.94;2052704;28;20128;-49
2023/06/28 02:21:37;;;;;;;4.97;4.00;;;;;;;27.72;48.98;98313.47;2060329;28;20065;-49
2023/06/28 02:22:42;;;;;;;5.55;4.07;;;;;;;27.69;48.26;98314.84;2062995;28;20588;-49
2023/06/28 02:23:48;;;;;;;4.95;4.10;;;;;;;27.69;48.50;98316.75;2061081;28;20131;-48
2023/06/28 02:24:55;;;;;;;5.32;3.75;;;;;;;27.63;48.85;98318.66;2058236;28;21190;-48
2023/06/28 02:25:57;;;;;;;7.10;4.82;;;;;;;27.58;48.93;98315.91;2061442;28;20133;-48
2023/06/28 02:26:59;;;;;;;5.78;4.00;;;;;;;27.55;48.80;98321.91;2060787;28;20057;-48
2023/06/28 02:28:00;;;;;;;5.18;3.92;;;;;;;27.56;48.96;98321.66;2064582;28;20076;-52
2023/06/28 02:29:03;;;;;;;5.78;4.60;;;;;;;27.54;48.90;98321.09;2060223;28;20058;-49
2023/06/28 02:30:09;;;;;;;4.72;3.80;;;;;;;27.48;48.67;98307.75;2058873;28;20058;-51
2023/06/28 02:31:12;;;;;;;5.72;4.30;;;;;;;27.39;49.02;98316.44;2057477;28;20074;-49
2023/06/28 02:32:14;;;;;;;4.57;4.18;;;;;;;27.31;49.29;98318.88;2051733;28;20050;-48
2023/06/28 02:33:16;;;;;;;6.45;4.80;;;;;;;27.26;48.96;98319.69;2060363;28;20065;-50
2023/06/28 02:34:17;;;;;;;9.18;4.93;;;;;;;27.32;48.94;98313.16;2060696;28;20054;-50
2023/06/28 02:35:23;;;;;;;5.35;3.97;;;;;;;27.36;49.17;98313.47;2058806;28;20085;-51
2023/06/28 02:36:26;;;;;;;6.57;4.20;;;;;;;27.36;48.84;98317.00;2061054;28;20767;-47
2023/06/28 02:37:36;;;;;;;5.55;4.68;;;;;;;27.39;49.20;98316.44;2058022;28;20049;-51
2023/06/28 02:38:42;;;;;;;5.93;4.90;;;;;;;27.43;49.07;98321.34;2061420;28;20045;-50
2023/06/28 02:39:47;;;;;;;5.97;4.03;;;;;;;27.43;49.34;98318.63;2061944;28;20577;-49
2023/06/28 02:40:51;;;;;;;5.22;4.00;;;;;;;27.42;49.14;98320.53;2057843;28;20164;-48
2023/06/28 02:41:57;;;;;;;5.57;4.28;;;;;;;27.42;49.32;98317.81;2058270;28;20069;-51
2023/06/28 02:43:00;;;;;;;5.00;4.10;;;;;;;27.45;48.96;98319.19;2060290;28;20156;-48
2023/06/28 02:44:06;;;;;;;5.88;4.50;;;;;;;27.40;49.20;98315.34;2062515;28;20049;-48
2023/06/28 02:45:09;;;;;;;7.13;4.32;;;;;;;27.38;49.02;98314.78;2056986;28;21305;-48
2023/06/28 02:46:11;;;;;;;8.30;4.90;;;;;;;27.40;49.08;98315.34;2059162;28;20144;-50
2023/06/28 02:47:12;;;;;;;5.68;4.57;;;;;;;27.40;49.21;98314.53;2059905;28;20741;-48
2023/06/28 02:48:18;;;;;;;6.22;4.65;;;;;;;27.37;49.51;98313.16;2057471;28;20050;-51
2023/06/28 02:49:19;;;;;;;14.63;5.07;;;;;;;27.33;49.27;98314.81;2059020;28;20496;-48
2023/06/28 02:50:38;;;;;;;5.90;4.40;;;;;;;27.35;49.30;98309.06;2061386;28;20533;-48
2023/06/28 02:51:41;;;;;;;4.07;3.67;;;;;;;27.36;49.19;98306.09;2057907;28;20589;-48
2023/06/28 02:52:43;;;;;;;5.20;4.55;;;;;;;27.36;49.25;98308.00;2056946;28;20465;-49
2023/06/28 02:53:46;;;;;;;5.05;4.25;;;;;;;27.39;49.46;98307.47;2061425;28;20049;-49
2023/06/28 02:54:53;;;;;;;5.78;4.05;;;;;;;27.42;49.15;98311.56;2058422;28;20069;-48
2023/06/28 02:55:55;;;;;;;5.72;4.50;;;;;;;27.37;49.64;98306.91;2060055;28;20766;-50
2023/06/28 02:56:57;;;;;;;6.65;5.18;;;;;;;27.37;49.49;98310.44;2060538;28;20058;-49
2023/06/28 02:58:01;;;;;;;5.68;4.30;;;;;;;27.37;49.51;98305.00;2063115;28;20241;-48
2023/06/28 02:59:06;;;;;;;7.85;4.85;;;;;;;27.40;49.29;98309.91;2058748;28;20124;-48
2023/06/28 03:00:10;;;;;;;6.03;4.72;;;;;;;27.36;49.51;98311.53;2056013;28;20057;-51
2023/06/28 03:01:15;;;;;;;7.90;5.15;;;;;;;27.34;49.42;98310.19;2061299;28;20143;-48
2023/06/28 03:02:24;;;;;;;6.38;4.30;;;;;;;27.35;49.47;98312.63;2059691;28;20078;-49
2023/06/28 03:03:33;;;;;;;4.80;3.45;;;;;;;27.36;49.62;98314.28;2060063;28;20074;-50
2023/06/28 03:04:45;;;;;;;5.95;4.57;;;;;;;27.30;49.67;98320.78;2059222;28;20053;-49
2023/06/28 03:05:46;;;;;;;4.75;4.28;;;;;;;27.32;49.43;98324.03;2060260;28;20145;-48
2023/06/28 03:07:01;;;;;;;5.00;4.38;;;;;;;27.35;49.34;98312.63;2060780;28;20050;-48
2023/06/28 03:08:05;;;;;;;6.63;4.53;;;;;;;27.42;49.09;98327.91;2058421;28;20754;-49
2023/06/28 03:09:08;;;;;;;5.30;3.80;;;;;;;27.44;49.24;98322.97;2059139;28;20046;-48
2023/06/28 03:10:12;;;;;;;6.60;4.60;;;;;;;27.42;49.22;98317.00;2061993;28;20046;-48
2023/06/28 03:11:18;;;;;;;6.97;4.95;;;;;;;27.39;49.43;98316.44;2056699;28;20107;-49
2023/06/28 03:12:20;;;;;;;6.65;4.93;;;;;;;27.40;49.42;98314.53;2059988;28;20045;-48
2023/06/28 03:13:22;;;;;;;6.22;4.60;;;;;;;27.40;49.42;98312.63;2058797;28;20042;-48
2023/06/28 03:14:32;;;;;;;6.53;4.85;;;;;;;27.39;49.43;98316.44;2056728;28;20614;-49
2023/06/28 03:15:49;;;;;;;6.07;4.32;;;;;;;27.37;49.56;98317.81;2049886;28;20062;-47
2023/06/28 03:16:51;;;;;;;6.60;4.68;;;;;;;27.31;49.47;98316.97;2057224;28;20053;-48
2023/06/28 03:17:59;;;;;;;5.40;4.50;;;;;;;27.33;49.39;98325.69;2068143;28;20437;-50
2023/06/28 03:19:04;;;;;;;5.10;4.57;;;;;;;27.32;49.74;98315.88;2061477;28;20137;-50
2023/06/28 03:20:08;;;;;;;5.78;4.55;;;;;;;27.31;49.71;98314.25;2061946;28;20042;-49
2023/06/28 03:21:09;;;;;;;6.45;4.38;;;;;;;27.32;49.63;98312.34;2060630;28;20097;-49
2023/06/28 03:22:12;;;;;;;6.32;4.40;;;;;;;27.32;50.09;98313.16;2059889;28;20049;-51
2023/06/28 03:23:13;;;;;;;5.43;4.93;;;;;;;27.28;50.02;98316.69;2059450;28;20061;-51
2023/06/28 03:24:15;;;;;;;6.32;4.30;;;;;;;27.32;49.82;98307.72;2061803;28;20498;-48
2023/06/28 03:25:22;;;;;;;9.30;4.78;;;;;;;27.32;49.52;98321.31;2060520;28;20078;-49
2023/06/28 03:26:36;;;;;;;5.25;4.22;;;;;;;27.24;50.19;98319.13;2060242;28;20527;-49
2023/06/28 03:27:37;;;;;;;6.82;4.35;;;;;;;27.23;49.94;98313.97;2057478;28;20457;-51
2023/06/28 03:28:45;;;;;;;6.05;4.50;;;;;;;27.23;50.11;98314.78;2061891;28;20057;-51
2023/06/28 03:29:51;;;;;;;5.82;4.30;;;;;;;27.26;50.09;98306.06;2060588;28;20590;-48
2023/06/28 03:31:15;;;;;;;7.50;5.10;;;;;;;27.27;50.02;98307.69;2061524;28;20077;-52
2023/06/28 03:32:16;;;;;;;8.07;5.70;;;;;;;27.26;50.16;98310.69;2049608;28;20061;-49
2023/06/28 03:33:22;;;;;;;6.97;4.65;;;;;;;27.29;49.92;98302.81;2057748;28;20976;-50
2023/06/28 03:34:24;;;;;;;6.22;4.65;;;;;;;27.29;50.43;98310.16;2060754;28;20089;-49
2023/06/28 03:35:27;;;;;;;8.48;5.65;;;;;;;27.25;50.11;98314.53;2060614;28;20096;-51
2023/06/28 03:36:29;;;;;;;5.53;4.10;;;;;;;27.24;50.38;98310.94;2061490;28;20050;-49
2023/06/28 03:37:30;;;;;;;7.32;5.10;;;;;;;27.21;50.52;98306.03;2060577;28;20050;-48
2023/06/28 03:38:38;;;;;;;6.47;4.95;;;;;;;27.20;50.54;98309.88;2062251;28;20116;-49
2023/06/28 03:39:43;;;;;;;5.35;3.95;;;;;;;27.22;50.33;98309.59;2060806;28;20146;-48
2023/06/28 03:40:45;;;;;;;5.68;4.53;;;;;;;27.15;50.24;98309.81;2060856;28;20496;-47
2023/06/28 03:41:55;;;;;;;6.90;4.45;;;;;;;27.15;50.58;98310.63;2061637;28;20391;-49
2023/06/28 03:42:57;;;;;;;9.57;4.55;;;;;;;27.15;50.90;98312.53;2057267;28;20447;-49
2023/06/28 03:44:02;;;;;;;6.38;4.63;;;;;;;27.18;50.26;98315.56;2059449;28;20070;-47
2023/06/28 03:45:18;;;;;;;7.28;4.38;;;;;;;27.11;50.64;98316.91;2056487;28;20120;-51
2023/06/28 03:46:29;;;;;;;6.57;4.47;;;;;;;27.08;50.67;98312.81;2066541;28;20056;-48
2023/06/28 03:47:33;;;;;;;;;;;;;;;26.97;51.23;98316.56;2061126;28;20061;-52
2023/06/28 03:48:35;;;;;;;9.48;5.18;;;;;;;27.07;50.77;98316.59;2058994;28;19925;-48
2023/06/28 03:49:40;;;;;;;7.53;4.82;;;;;;;27.11;50.81;98309.53;2062514;28;20546;-48
2023/06/28 03:50:49;;;;;;;5.57;4.75;;;;;;;27.14;51.08;98308.19;2061359;28;20050;-50
2023/06/28 03:51:51;;;;;;;6.70;4.72;;;;;;;27.11;50.85;98308.72;2060611;28;20060;-50
2023/06/28 03:52:52;;;;;;;7.50;4.70;;;;;;;27.12;50.84;98308.44;2064536;28;20046;-51
2023/06/28 03:53:54;;;;;;;7.25;4.70;;;;;;;27.14;50.90;98306.28;2062430;28;20061;-48
2023/06/28 03:54:54;;;;;;;5.25;3.83;;;;;;;27.18;51.29;98303.88;2060258;28;20054;-51
2023/06/28 03:56:00;;;;;;;7.13;5.20;;;;;;;27.24;51.01;98302.78;2058750;28;20137;-48
2023/06/28 03:57:14;;;;;;;7.30;4.63;;;;;;;27.24;50.99;98308.22;2060758;28;20674;-48
2023/06/28 03:58:17;;;;;;;7.45;4.70;;;;;;;27.25;51.22;98309.88;2057340;28;20045;-48
2023/06/28 03:59:22;;;;;;;6.78;4.40;;;;;;;27.27;50.78;98304.16;2063364;28;20511;-47
2023/06/28 04:00:27;;;;;;;9.77;4.68;;;;;;;27.26;51.13;98297.91;2059500;28;20074;-47
2023/06/28 04:01:30;;;;;;;8.52;4.88;;;;;;;27.26;50.76;98303.34;2060415;28;20046;-48
2023/06/28 04:02:32;;;;;;;6.72;5.38;;;;;;;27.26;51.03;98310.69;2057153;28;21639;-49
2023/06/28 04:03:57;;;;;;;5.28;4.07;;;;;;;27.25;51.23;98300.91;2061673;28;20527;-49
2023/06/28 04:05:03;;;;;;;7.85;5.45;;;;;;;27.17;51.13;98307.69;2056248;28;20053;-51
2023/06/28 04:06:12;;;;;;;7.30;4.55;;;;;;;27.17;51.12;98303.06;2052322;28;20154;-49
2023/06/28 04:07:13;;;;;;;9.25;4.80;;;;;;;27.16;51.52;98306.03;2059453;28;20085;-47
2023/06/28 04:08:16;;;;;;;10.60;5.40;;;;;;;27.18;51.48;98303.88;2059546;28;20774;-48
2023/06/28 04:09:17;;;;;;;7.88;5.60;;;;;;;27.18;51.53;98298.41;2063535;28;20105;-48
2023/06/28 04:10:19;;;;;;;8.48;5.35;;;;;;;27.21;51.31;98302.50;2063361;28;20182;-48
2023/06/28 04:11:20;;;;;;;6.45;4.53;;;;;;;27.23;51.35;98293.00;2065000;28;20053;-48
2023/06/28 04:12:24;;;;;;;6.22;4.40;;;;;;;27.25;51.11;98293.53;2062983;28;21005;-50
2023/06/28 04:13:25;;;;;;;5.90;4.47;;;;;;;27.26;51.06;98291.63;2063632;28;20162;-50
2023/06/28 04:14:27;;;;;;;7.35;5.13;;;;;;;27.28;51.12;98293.00;2065821;28;20054;-49
2023/06/28 04:15:28;;;;;;;7.57;4.65;;;;;;;27.28;50.99;98289.47;2059108;28;20968;-51
2023/06/28 04:16:30;;;;;;;6.60;4.57;;;;;;;27.32;50.92;98296.00;2061190;28;20077;-49
2023/06/28 04:17:31;;;;;;;7.55;4.80;;;;;;;27.32;51.17;98288.66;2062015;28;20077;-47
2023/06/28 04:18:32;;;;;;;7.82;4.88;;;;;;;27.34;50.37;98299.28;2060875;28;20054;-50
2023/06/28 04:19:33;;;;;;;6.70;4.22;;;;;;;27.34;50.49;98294.66;2061451;28;20053;-48
2023/06/28 04:20:35;;;;;;;7.72;5.43;;;;;;;27.35;50.74;98298.19;2062927;28;20148;-47
2023/06/28 04:21:36;;;;;;;5.50;4.40;;;;;;;27.34;50.66;98297.38;2064091;28;20054;-49
2023/06/28 04:22:37;;;;;;;6.28;4.82;;;;;;;27.35;50.86;98300.91;2062912;28;21295;-50
2023/06/28 04:23:38;;;;;;;6.82;4.80;;;;;;;27.36;50.76;98308.81;2061628;28;20069;-48
2023/06/28 04:24:40;;;;;;;6.70;4.53;;;;;;;27.35;50.37;98312.63;2061717;28;20063;-49
2023/06/28 04:25:41;;;;;;;7.22;4.72;;;;;;;27.35;50.52;98309.88;2058641;28;20050;-47
2023/06/28 04:26:43;;;;;;;5.78;5.03;;;;;;;27.35;50.84;98311.81;2062618;28;20132;-48
2023/06/28 04:27:45;;;;;;;6.85;4.22;;;;;;;27.38;50.57;98312.06;2059979;28;20046;-51
2023/06/28 04:28:47;;;;;;;7.40;4.43;;;;;;;27.37;50.55;98313.16;2060845;28;20077;-50
2023/06/28 04:29:48;;;;;;;8.90;5.43;;;;;;;27.38;50.58;98314.78;2064655;28;20066;-50
2023/06/28 04:30:50;;;;;;;9.60;5.13;;;;;;;27.36;50.48;98311.53;2063803;28;20508;-48
2023/06/28 04:31:50;;;;;;;8.45;4.60;;;;;;;27.36;50.39;98318.91;2062066;28;20061;-50
2023/06/28 04:32:52;;;;;;;5.95;5.30;;;;;;;27.37;50.51;98320.53;2066119;28;20069;-48
2023/06/28 04:33:55;;;;;;;7.65;4.57;;;;;;;27.38;50.51;98317.53;2062766;28;20056;-49
2023/06/28 04:34:58;;;;;;;10.05;5.15;;;;;;;27.40;50.26;98325.44;2065676;28;20464;-50
2023/06/28 04:36:01;;;;;;;6.97;4.30;;;;;;;27.38;50.24;98322.97;2063676;28;20065;-47
2023/06/28 04:37:04;;;;;;;6.97;4.70;;;;;;;27.38;50.30;98322.97;2064334;28;20884;-51
2023/06/28 04:38:07;;;;;;;5.10;4.57;;;;;;;27.38;50.28;98316.72;2063775;28;20134;-49
2023/06/28 04:39:09;;;;;;;6.85;4.93;;;;;;;27.28;50.30;98317.50;2059522;28;20062;-52
2023/06/28 04:40:12;;;;;;;7.47;5.05;;;;;;;27.22;50.65;98318.59;2060711;28;20046;-52
2023/06/28 04:41:14;;;;;;;8.30;4.65;;;;;;;27.20;50.52;98318.03;2060572;28;20046;-52
2023/06/28 04:42:15;;;;;;;7.93;5.00;;;;;;;27.18;50.54;98318.28;2062785;28;20050;-50
2023/06/28 04:43:20;;;;;;;6.28;4.85;;;;;;;27.14;50.93;98316.34;2059541;28;20058;-51
2023/06/28 04:44:21;;;;;;;6.00;4.45;;;;;;;27.13;50.97;98315.50;2064443;28;20420;-49
2023/06/28 04:45:36;;;;;;;6.68;5.07;;;;;;;27.13;50.91;98320.16;2061224;28;20137;-48
2023/06/28 04:46:37;;;;;;;5.45;4.60;;;;;;;27.14;51.30;98316.34;2060799;28;20073;-51
2023/06/28 04:47:39;;;;;;;9.57;4.60;;;;;;;27.14;51.28;98317.16;2061897;28;20411;-52
2023/06/28 04:48:42;;;;;;;7.72;5.47;;;;;;;27.15;51.30;98313.34;2062149;28;20426;-53
2023/06/28 04:49:46;;;;;;;5.75;4.88;;;;;;;27.19;51.01;98324.53;2062742;28;20049;-54
2023/06/28 04:50:47;;;;;;;4.72;4.22;;;;;;;27.20;51.12;98319.94;2063169;28;20057;-48
2023/06/28 04:51:49;;;;;;;6.47;5.32;;;;;;;27.21;50.96;98325.09;2062587;28;20108;-53
2023/06/28 04:52:50;;;;;;;6.88;4.82;;;;;;;27.27;51.18;98321.31;2063971;28;20053;-51
2023/06/28 04:53:52;;;;;;;6.43;4.55;;;;;;;27.31;51.10;98321.59;2062937;28;20435;-49
2023/06/28 04:54:52;;;;;;;7.35;5.32;;;;;;;27.33;50.93;98317.53;2062184;28;20124;-50
2023/06/28 04:55:54;;;;;;;8.30;5.13;;;;;;;27.34;50.76;98319.16;2061548;28;20673;-51
2023/06/28 04:56:55;;;;;;;6.20;4.55;;;;;;;27.34;50.65;98323.78;2067896;28;20042;-50
2023/06/28 04:57:57;;;;;;;6.20;4.43;;;;;;;27.32;50.91;98324.03;2065946;28;20431;-50
2023/06/28 04:59:00;;;;;;;7.30;5.20;;;;;;;27.34;50.67;98323.78;2065725;28;20053;-47
2023/06/28 05:00:02;;;;;;;7.78;4.78;;;;;;;27.32;50.59;98326.78;2062199;28;20437;-51
2023/06/28 05:01:07;;;;;;;4.93;4.28;;;;;;;27.35;50.71;98326.22;2063088;28;20525;-53
2023/06/28 05:02:09;;;;;;;7.82;5.32;;;;;;;27.34;51.04;98324.59;2063063;28;20069;-49